TUX009 DTTJ-DTTA
Flight info
| Callsign | TUX009 |
|---|---|
| Flight time | 0h 37m |
| Altitude | 24000 |
| Route | BISKO1A BISKO A411 TUC |
| Aircraft | A320/M-SDE3FGHIRWY/LB1 |
Departure
| Time | 2026-04-20 21:52 |
|---|---|
| Airport | Djerba Zarzis International Airport (DTTJ) |
Arrival
| Time | 2026-04-20 22:29 |
|---|---|
| Airport | Tunis Carthage International Airport (DTTA) |
| Time | Latitude | Longitude | Altitude | Speed | Heading |
|---|---|---|---|---|---|
| 2026-04-20 21:32 | 33.87319 | 10.77724 | 27 ft | 0 kts | 178° |
| 2026-04-20 21:42 | 33.87325 | 10.77724 | 27 ft | 4 kts | 178° |
| 2026-04-20 21:43 | 33.87349 | 10.77723 | 27 ft | 3 kts | 178° |
| 2026-04-20 21:43 | 33.87373 | 10.77728 | 26 ft | 4 kts | 218° |
| 2026-04-20 21:43 | 33.87386 | 10.77752 | 26 ft | 4 kts | 260° |
| 2026-04-20 21:43 | 33.87388 | 10.77779 | 26 ft | 1 kts | 268° |
| 2026-04-20 21:44 | 33.87388 | 10.77780 | 26 ft | 0 kts | 268° |
| 2026-04-20 21:46 | 33.87388 | 10.77778 | 26 ft | 1 kts | 268° |
| 2026-04-20 21:46 | 33.87388 | 10.77758 | 26 ft | 4 kts | 268° |
| 2026-04-20 21:46 | 33.87386 | 10.77698 | 26 ft | 9 kts | 268° |
| 2026-04-20 21:47 | 33.87384 | 10.77616 | 26 ft | 11 kts | 268° |
| 2026-04-20 21:47 | 33.87382 | 10.77513 | 26 ft | 13 kts | 268° |
| 2026-04-20 21:47 | 33.87378 | 10.77393 | 27 ft | 15 kts | 268° |
| 2026-04-20 21:47 | 33.87368 | 10.77255 | 27 ft | 18 kts | 264° |
| 2026-04-20 21:48 | 33.87364 | 10.77103 | 27 ft | 19 kts | 268° |
| 2026-04-20 21:48 | 33.87359 | 10.76970 | 27 ft | 16 kts | 268° |
| 2026-04-20 21:48 | 33.87355 | 10.76815 | 24 ft | 21 kts | 268° |
| 2026-04-20 21:48 | 33.87350 | 10.76626 | 20 ft | 22 kts | 269° |
| 2026-04-20 21:49 | 33.87346 | 10.76476 | 21 ft | 18 kts | 268° |
| 2026-04-20 21:49 | 33.87342 | 10.76318 | 20 ft | 20 kts | 269° |
| 2026-04-20 21:49 | 33.87339 | 10.76149 | 16 ft | 17 kts | 270° |
| 2026-04-20 21:49 | 33.87398 | 10.76054 | 18 ft | 14 kts | 351° |
| 2026-04-20 21:50 | 33.87476 | 10.76052 | 21 ft | 9 kts | 0° |
| 2026-04-20 21:50 | 33.87504 | 10.76089 | 22 ft | 7 kts | 92° |
| 2026-04-20 21:50 | 33.87504 | 10.76111 | 23 ft | 0 kts | 88° |
| 2026-04-20 21:51 | 33.87506 | 10.76199 | 22 ft | 41 kts | 88° |
| 2026-04-20 21:51 | 33.87523 | 10.76835 | 18 ft | 108 kts | 88° |
| 2026-04-20 21:51 | 33.87547 | 10.77952 | 27 ft | 157 kts | 89° |
| 2026-04-20 21:51 | 33.87578 | 10.79314 | 495 ft | 162 kts | 92° |
| 2026-04-20 21:52 | 33.87835 | 10.80643 | 1128 ft | 169 kts | 66° |
| 2026-04-20 21:52 | 33.88651 | 10.81694 | 1740 ft | 179 kts | 34° |
| 2026-04-20 21:52 | 33.89902 | 10.82131 | 2034 ft | 200 kts | 357° |
| 2026-04-20 21:52 | 33.91253 | 10.81577 | 2375 ft | 215 kts | 322° |
| 2026-04-20 21:53 | 33.92488 | 10.80410 | 2713 ft | 235 kts | 321° |
| 2026-04-20 21:53 | 33.93816 | 10.79261 | 3548 ft | 233 kts | 323° |
| 2026-04-20 21:53 | 33.95149 | 10.78180 | 4528 ft | 229 kts | 324° |
| 2026-04-20 21:53 | 33.96465 | 10.77118 | 5471 ft | 227 kts | 324° |
| 2026-04-20 21:54 | 33.97815 | 10.76104 | 6314 ft | 231 kts | 333° |
| 2026-04-20 21:54 | 33.99456 | 10.75630 | 6755 ft | 257 kts | 354° |
| 2026-04-20 21:54 | 34.01298 | 10.75469 | 7227 ft | 276 kts | 353° |
| 2026-04-20 21:54 | 34.03236 | 10.75299 | 8039 ft | 280 kts | 354° |
| 2026-04-20 21:55 | 34.05184 | 10.75124 | 8960 ft | 281 kts | 355° |
| 2026-04-20 21:55 | 34.07139 | 10.74945 | 9864 ft | 283 kts | 355° |
| 2026-04-20 21:55 | 34.09131 | 10.74758 | 10428 ft | 296 kts | 355° |
| 2026-04-20 21:55 | 34.11269 | 10.74551 | 10646 ft | 319 kts | 354° |
| 2026-04-20 21:56 | 34.13554 | 10.74325 | 10946 ft | 337 kts | 354° |
| 2026-04-20 21:56 | 34.15921 | 10.74088 | 11508 ft | 345 kts | 354° |
| 2026-04-20 21:56 | 34.18332 | 10.73849 | 12155 ft | 350 kts | 353° |
| 2026-04-20 21:56 | 34.20785 | 10.73608 | 12815 ft | 355 kts | 354° |
| 2026-04-20 21:57 | 34.23269 | 10.73367 | 13458 ft | 361 kts | 353° |
| 2026-04-20 21:57 | 34.25793 | 10.73122 | 14070 ft | 366 kts | 353° |
| 2026-04-20 21:57 | 34.28344 | 10.72871 | 14696 ft | 368 kts | 353° |
| 2026-04-20 21:57 | 34.30908 | 10.72627 | 15320 ft | 371 kts | 354° |
| 2026-04-20 21:58 | 34.33496 | 10.72420 | 15905 ft | 375 kts | 354° |
| 2026-04-20 21:58 | 34.36113 | 10.72238 | 16499 ft | 378 kts | 354° |
| 2026-04-20 21:58 | 34.38757 | 10.72066 | 17111 ft | 382 kts | 354° |
| 2026-04-20 21:58 | 34.41418 | 10.71894 | 17721 ft | 385 kts | 355° |
| 2026-04-20 21:59 | 34.44109 | 10.71713 | 18325 ft | 389 kts | 354° |
| 2026-04-20 21:59 | 34.46826 | 10.71525 | 18892 ft | 392 kts | 354° |
| 2026-04-20 21:59 | 34.49557 | 10.71294 | 19480 ft | 394 kts | 353° |
| 2026-04-20 21:59 | 34.52299 | 10.71009 | 20076 ft | 397 kts | 353° |
| 2026-04-20 22:00 | 34.55068 | 10.70694 | 20667 ft | 400 kts | 352° |
| 2026-04-20 22:00 | 34.57846 | 10.70373 | 21236 ft | 402 kts | 352° |
| 2026-04-20 22:00 | 34.60603 | 10.70060 | 21773 ft | 405 kts | 352° |
| 2026-04-20 22:00 | 34.63416 | 10.69748 | 22298 ft | 407 kts | 352° |
| 2026-04-20 22:01 | 34.66254 | 10.69441 | 22816 ft | 410 kts | 352° |
| 2026-04-20 22:01 | 34.69106 | 10.69141 | 23319 ft | 412 kts | 352° |
| 2026-04-20 22:01 | 34.71981 | 10.68927 | 23774 ft | 417 kts | 358° |
| 2026-04-20 22:01 | 34.74888 | 10.69082 | 23974 ft | 418 kts | 0° |
| 2026-04-20 22:02 | 34.77827 | 10.69272 | 24036 ft | 428 kts | 0° |
| 2026-04-20 22:02 | 34.80816 | 10.69466 | 24029 ft | 432 kts | 0° |
| 2026-04-20 22:02 | 34.83823 | 10.69659 | 24028 ft | 433 kts | 0° |
| 2026-04-20 22:02 | 34.86834 | 10.69848 | 24027 ft | 434 kts | 0° |
| 2026-04-20 22:03 | 34.89855 | 10.70036 | 24027 ft | 434 kts | 0° |
| 2026-04-20 22:03 | 34.92834 | 10.70221 | 24027 ft | 434 kts | 0° |
| 2026-04-20 22:03 | 34.95849 | 10.70409 | 24024 ft | 434 kts | 0° |
| 2026-04-20 22:03 | 34.98874 | 10.70599 | 24022 ft | 434 kts | 0° |
| 2026-04-20 22:04 | 35.01892 | 10.70771 | 24021 ft | 434 kts | 0° |
| 2026-04-20 22:04 | 35.04911 | 10.70929 | 24030 ft | 434 kts | 360° |
| 2026-04-20 22:04 | 35.07927 | 10.71080 | 24022 ft | 434 kts | 360° |
| 2026-04-20 22:04 | 35.10942 | 10.71236 | 24020 ft | 434 kts | 360° |
| 2026-04-20 22:05 | 35.13957 | 10.71395 | 24019 ft | 434 kts | 360° |
| 2026-04-20 22:05 | 35.16976 | 10.71556 | 24018 ft | 434 kts | 360° |
| 2026-04-20 22:05 | 35.19997 | 10.71719 | 24015 ft | 434 kts | 360° |
| 2026-04-20 22:05 | 35.23010 | 10.71881 | 24014 ft | 434 kts | 360° |
| 2026-04-20 22:06 | 35.26026 | 10.72044 | 24014 ft | 434 kts | 360° |
| 2026-04-20 22:06 | 35.29005 | 10.72203 | 24024 ft | 433 kts | 360° |
| 2026-04-20 22:06 | 35.32020 | 10.72365 | 24029 ft | 433 kts | 360° |
| 2026-04-20 22:06 | 35.35027 | 10.72529 | 24029 ft | 433 kts | 0° |
| 2026-04-20 22:07 | 35.38035 | 10.72692 | 24027 ft | 432 kts | 360° |
| 2026-04-20 22:07 | 35.41044 | 10.72855 | 24024 ft | 432 kts | 360° |
| 2026-04-20 22:07 | 35.44047 | 10.73018 | 24021 ft | 432 kts | 0° |
| 2026-04-20 22:07 | 35.47056 | 10.73186 | 24024 ft | 432 kts | 0° |
| 2026-04-20 22:08 | 35.50063 | 10.73355 | 24018 ft | 432 kts | 0° |
| 2026-04-20 22:08 | 35.53068 | 10.73530 | 24017 ft | 432 kts | 0° |
| 2026-04-20 22:08 | 35.56076 | 10.73703 | 24017 ft | 432 kts | 0° |
| 2026-04-20 22:08 | 35.59079 | 10.73873 | 24009 ft | 432 kts | 0° |
| 2026-04-20 22:09 | 35.62041 | 10.74039 | 24007 ft | 432 kts | 0° |
| 2026-04-20 22:09 | 35.65045 | 10.74209 | 24004 ft | 432 kts | 0° |
| 2026-04-20 22:09 | 35.68045 | 10.74379 | 24001 ft | 432 kts | 0° |
| 2026-04-20 22:09 | 35.71055 | 10.74551 | 24002 ft | 432 kts | 0° |
| 2026-04-20 22:10 | 35.74053 | 10.74545 | 23995 ft | 429 kts | 353° |
| 2026-04-20 22:10 | 35.76993 | 10.73959 | 24012 ft | 426 kts | 343° |
| 2026-04-20 22:10 | 35.79803 | 10.72821 | 24011 ft | 425 kts | 337° |
| 2026-04-20 22:10 | 35.82565 | 10.71526 | 24008 ft | 425 kts | 337° |
| 2026-04-20 22:11 | 35.85332 | 10.70231 | 24009 ft | 425 kts | 338° |
| 2026-04-20 22:11 | 35.88100 | 10.68940 | 24015 ft | 425 kts | 338° |
| 2026-04-20 22:11 | 35.90866 | 10.67654 | 24015 ft | 425 kts | 338° |
| 2026-04-20 22:11 | 35.93634 | 10.66364 | 24012 ft | 425 kts | 338° |
| 2026-04-20 22:12 | 35.96397 | 10.65074 | 24008 ft | 425 kts | 338° |
| 2026-04-20 22:12 | 35.99168 | 10.63778 | 24009 ft | 425 kts | 338° |
| 2026-04-20 22:12 | 36.01897 | 10.62499 | 24009 ft | 425 kts | 338° |
| 2026-04-20 22:12 | 36.04662 | 10.61201 | 24015 ft | 425 kts | 337° |
| 2026-04-20 22:13 | 36.07427 | 10.59903 | 24009 ft | 425 kts | 337° |
| 2026-04-20 22:13 | 36.10190 | 10.58606 | 24005 ft | 425 kts | 337° |
| 2026-04-20 22:13 | 36.12921 | 10.57326 | 23953 ft | 414 kts | 337° |
| 2026-04-20 22:13 | 36.15611 | 10.56066 | 22956 ft | 417 kts | 338° |
| 2026-04-20 22:14 | 36.18330 | 10.54792 | 22189 ft | 415 kts | 338° |
| 2026-04-20 22:14 | 36.21008 | 10.53535 | 21650 ft | 408 kts | 338° |
| 2026-04-20 22:14 | 36.23649 | 10.52292 | 21093 ft | 403 kts | 337° |
| 2026-04-20 22:14 | 36.26253 | 10.51060 | 20556 ft | 399 kts | 337° |
| 2026-04-20 22:15 | 36.28839 | 10.49833 | 20044 ft | 396 kts | 337° |
| 2026-04-20 22:15 | 36.31406 | 10.48607 | 19502 ft | 394 kts | 337° |
| 2026-04-20 22:15 | 36.33957 | 10.47378 | 18983 ft | 392 kts | 337° |
| 2026-04-20 22:15 | 36.36525 | 10.46255 | 18440 ft | 392 kts | 343° |
| 2026-04-20 22:16 | 36.39213 | 10.45710 | 17833 ft | 392 kts | 355° |
| 2026-04-20 22:16 | 36.41903 | 10.45835 | 17278 ft | 391 kts | 6° |
| 2026-04-20 22:16 | 36.44587 | 10.46333 | 16712 ft | 388 kts | 7° |
| 2026-04-20 22:16 | 36.47248 | 10.46832 | 16125 ft | 386 kts | 7° |
| 2026-04-20 22:17 | 36.49896 | 10.47322 | 15533 ft | 383 kts | 7° |
| 2026-04-20 22:17 | 36.52525 | 10.47803 | 14919 ft | 380 kts | 7° |
| 2026-04-20 22:17 | 36.55136 | 10.48277 | 14328 ft | 378 kts | 6° |
| 2026-04-20 22:17 | 36.57730 | 10.48747 | 13724 ft | 376 kts | 6° |
| 2026-04-20 22:18 | 36.60309 | 10.49215 | 13084 ft | 373 kts | 6° |
| 2026-04-20 22:18 | 36.62859 | 10.49683 | 12489 ft | 368 kts | 6° |
| 2026-04-20 22:18 | 36.65386 | 10.50150 | 11893 ft | 365 kts | 6° |
| 2026-04-20 22:18 | 36.67888 | 10.50610 | 11300 ft | 362 kts | 5° |
| 2026-04-20 22:19 | 36.70367 | 10.51059 | 10722 ft | 358 kts | 4° |
| 2026-04-20 22:19 | 36.72784 | 10.51075 | 10549 ft | 337 kts | 348° |
| 2026-04-20 22:19 | 36.74952 | 10.50259 | 10433 ft | 318 kts | 334° |
| 2026-04-20 22:19 | 36.76944 | 10.49186 | 10308 ft | 305 kts | 333° |
| 2026-04-20 22:20 | 36.78854 | 10.48151 | 10195 ft | 293 kts | 333° |
| 2026-04-20 22:20 | 36.80695 | 10.47144 | 10007 ft | 285 kts | 333° |
| 2026-04-20 22:20 | 36.82477 | 10.46164 | 9698 ft | 282 kts | 332° |
| 2026-04-20 22:20 | 36.84265 | 10.45180 | 9215 ft | 278 kts | 332° |
| 2026-04-20 22:21 | 36.86032 | 10.44205 | 8567 ft | 277 kts | 333° |
| 2026-04-20 22:21 | 36.87791 | 10.43238 | 7925 ft | 275 kts | 333° |
| 2026-04-20 22:21 | 36.89533 | 10.42280 | 7290 ft | 273 kts | 333° |
| 2026-04-20 22:21 | 36.91269 | 10.41323 | 6674 ft | 271 kts | 333° |
| 2026-04-20 22:22 | 36.92988 | 10.40374 | 6052 ft | 270 kts | 333° |
| 2026-04-20 22:22 | 36.94706 | 10.39426 | 5380 ft | 270 kts | 333° |
| 2026-04-20 22:22 | 36.96430 | 10.38474 | 4762 ft | 270 kts | 334° |
| 2026-04-20 22:22 | 36.98147 | 10.37528 | 4204 ft | 270 kts | 334° |
| 2026-04-20 22:23 | 36.99864 | 10.36582 | 3928 ft | 266 kts | 334° |
| 2026-04-20 22:23 | 37.01563 | 10.35615 | 3470 ft | 270 kts | 328° |
| 2026-04-20 22:23 | 37.02946 | 10.34160 | 3399 ft | 253 kts | 305° |
| 2026-04-20 22:23 | 37.03725 | 10.32278 | 3342 ft | 236 kts | 283° |
| 2026-04-20 22:24 | 37.03879 | 10.30315 | 3288 ft | 220 kts | 262° |
| 2026-04-20 22:24 | 37.03400 | 10.28593 | 3218 ft | 205 kts | 233° |
| 2026-04-20 22:24 | 37.02364 | 10.27492 | 3058 ft | 197 kts | 204° |
| 2026-04-20 22:24 | 37.01060 | 10.27044 | 2841 ft | 193 kts | 193° |
| 2026-04-20 22:25 | 36.99751 | 10.26694 | 2602 ft | 191 kts | 193° |
| 2026-04-20 22:25 | 36.98460 | 10.26344 | 2355 ft | 189 kts | 193° |
| 2026-04-20 22:25 | 36.97186 | 10.25997 | 2113 ft | 185 kts | 193° |
| 2026-04-20 22:25 | 36.95975 | 10.25666 | 1890 ft | 172 kts | 193° |
| 2026-04-20 22:26 | 36.95206 | 10.25456 | 1735 ft | 160 kts | 193° |
| 2026-04-20 22:26 | 36.94191 | 10.25179 | 1523 ft | 142 kts | 192° |
| 2026-04-20 22:26 | 36.93248 | 10.24921 | 1343 ft | 136 kts | 192° |
| 2026-04-20 22:27 | 36.91438 | 10.24427 | 995 ft | 132 kts | 191° |
| 2026-04-20 22:27 | 36.90534 | 10.24181 | 827 ft | 133 kts | 190° |
| 2026-04-20 22:27 | 36.89620 | 10.23933 | 661 ft | 137 kts | 191° |
| 2026-04-20 22:27 | 36.88688 | 10.23679 | 498 ft | 138 kts | 191° |
| 2026-04-20 22:28 | 36.87756 | 10.23424 | 306 ft | 137 kts | 191° |
| 2026-04-20 22:28 | 36.86819 | 10.23168 | 103 ft | 138 kts | 191° |
| 2026-04-20 22:28 | 36.85930 | 10.22925 | 31 ft | 115 kts | 192° |
| 2026-04-20 22:28 | 36.85316 | 10.22757 | 34 ft | 68 kts | 192° |
| 2026-04-20 22:29 | 36.84918 | 10.22649 | 33 ft | 54 kts | 192° |
| 2026-04-20 22:29 | 36.84589 | 10.22547 | 28 ft | 36 kts | 207° |
| 2026-04-20 22:29 | 36.84490 | 10.22388 | 30 ft | 18 kts | 253° |
| 2026-04-20 22:29 | 36.84483 | 10.22252 | 30 ft | 13 kts | 275° |
| 2026-04-20 22:30 | 36.84505 | 10.22134 | 30 ft | 15 kts | 285° |
| 2026-04-20 22:30 | 36.84593 | 10.22092 | 30 ft | 16 kts | 13° |
| 2026-04-20 22:30 | 36.84702 | 10.22102 | 30 ft | 14 kts | 326° |
| 2026-04-20 22:30 | 36.84728 | 10.22017 | 30 ft | 5 kts | 290° |
| 2026-04-20 22:31 | 36.84751 | 10.22020 | 30 ft | 5 kts | 12° |
| 2026-04-20 22:31 | 36.84790 | 10.22032 | 30 ft | 7 kts | 6° |
| 2026-04-20 22:31 | 36.84813 | 10.21980 | 30 ft | 8 kts | 283° |
| 2026-04-20 22:31 | 36.84820 | 10.21940 | 30 ft | 3 kts | 282° |
| 2026-04-20 22:32 | 36.84821 | 10.21934 | 30 ft | 0 kts | 283° |